Baker Lake Airport
CYBK : now visible

Airfield :











YOU CAN JOIN US ON...

 
LOGIN :

Register | Disclaimer

   EN    FR    IT 

 









Legend :    VFR   Marginal VFR   IFR   Intensive IFR   Very Intensive IFR
Visi :
Ceiling :
>= 8 km
>= 3000ft
5 to 8 km
1000 to 3000 ft
1500m to 5 km
500 to 1000 ft
800 to 1500m
200 to 500 ft
< 800m
< 200 ft
Symbols :   Thunderstorms  Fog  Heavy snow  Heavy precipitations  Wind > 20 kt






- Airport Elevation : 59 ft
- IATA code : YBK


CYBK - Baker Lake

CURRENT METAR :
  • 040700Z 13006KT 2SM -SN OVC002 M13/M15 A2997 RMK SC8 SLP154

EXPIRED METARs :
  • 040654Z 12006KT 2SM -SN OVC002 M13/M15 A2998 RMK SC8 SLP157
  • 040600Z 13005KT 1SM -SN OVC002 M14/M16 A2999 RMK SC8 PRESFR SLP160
  • 040549Z 15006KT 1 1/2SM -SN OVC002 M14/M16 A3000 RMK SC8 SLP164
  • 040500Z 16003KT 120V180 4SM -SN OVC003 M14/M16 A3000 RMK SC8 SLP163

TAF TAF CYBK
Valid from the 04 at 06:00 until the 04 at 18:00 UTC


040538Z 0406/0418 VRB03KT P6SM OVC008
TEMPO 0406/0418 4SM -SN BR OVC003
BECMG 0407/0409 18010KT RMK NXT FCST BY 041200Z
CZEG FIR / North America



MET'MAP, your aeronautical weather chart ! - Copyright ORBIFLY December 2007 - Disclaimer

ORBIFLY MET'MAP TEAM :

Programming & Development : Alexandra Zaïnal
Concept & original design : Baudouin d'Aumeries
Assistance for programming : Marc-Olivier Méhu
Technical & hardware support : Manuel Goepfert

Contact : metmap@orbifly.com




SOURCES & CREDITS :

   NOAA       Earth
Advisory